sensor_id;sensor_type;location;lat;lon;timestamp;P1;durP1;ratioP1;P2;durP2;ratioP2
11962;SDS011;62678;52.130;5.584;2023-08-17T00:01:38;5.72;;;2.13;;
11962;SDS011;62678;52.130;5.584;2023-08-17T00:04:05;6.15;;;2.10;;
11962;SDS011;62678;52.130;5.584;2023-08-17T00:06:32;6.50;;;2.22;;
11962;SDS011;62678;52.130;5.584;2023-08-17T00:09:01;5.45;;;1.88;;
11962;SDS011;62678;52.130;5.584;2023-08-17T00:11:29;4.60;;;1.70;;
11962;SDS011;62678;52.130;5.584;2023-08-17T00:13:56;4.80;;;1.80;;
11962;SDS011;62678;52.130;5.584;2023-08-17T00:16:24;2.60;;;1.70;;
11962;SDS011;62678;52.130;5.584;2023-08-17T00:18:51;4.90;;;2.03;;
11962;SDS011;62678;52.130;5.584;2023-08-17T00:21:18;2.95;;;1.70;;
11962;SDS011;62678;52.130;5.584;2023-08-17T00:23:46;4.15;;;1.90;;
11962;SDS011;62678;52.130;5.584;2023-08-17T00:26:14;4.28;;;1.95;;
11962;SDS011;62678;52.130;5.584;2023-08-17T00:28:41;5.45;;;2.00;;
11962;SDS011;62678;52.130;5.584;2023-08-17T00:31:08;6.53;;;2.00;;
11962;SDS011;62678;52.130;5.584;2023-08-17T00:33:35;5.82;;;2.00;;
11962;SDS011;62678;52.130;5.584;2023-08-17T00:36:02;5.93;;;2.13;;
11962;SDS011;62678;52.130;5.584;2023-08-17T00:38:29;4.50;;;1.80;;
11962;SDS011;62678;52.130;5.584;2023-08-17T00:40:56;5.30;;;1.85;;
11962;SDS011;62678;52.130;5.584;2023-08-17T00:43:24;4.70;;;1.73;;
11962;SDS011;62678;52.130;5.584;2023-08-17T00:45:51;6.35;;;1.83;;
11962;SDS011;62678;52.130;5.584;2023-08-17T00:48:19;3.22;;;1.70;;
11962;SDS011;62678;52.130;5.584;2023-08-17T00:50:47;5.68;;;1.80;;
11962;SDS011;62678;52.130;5.584;2023-08-17T00:53:15;4.53;;;2.20;;
11962;SDS011;62678;52.130;5.584;2023-08-17T00:55:43;4.20;;;2.13;;
11962;SDS011;62678;52.130;5.584;2023-08-17T00:58:10;5.40;;;2.10;;
11962;SDS011;62678;52.130;5.584;2023-08-17T01:00:39;3.92;;;1.88;;
11962;SDS011;62678;52.130;5.584;2023-08-17T01:03:06;3.58;;;1.55;;
11962;SDS011;62678;52.130;5.584;2023-08-17T01:05:33;5.80;;;2.15;;
11962;SDS011;62678;52.130;5.584;2023-08-17T01:08:01;4.90;;;2.10;;
11962;SDS011;62678;52.130;5.584;2023-08-17T01:10:29;5.38;;;1.70;;
11962;SDS011;62678;52.130;5.584;2023-08-17T01:13:05;5.57;;;1.98;;
11962;SDS011;62678;52.130;5.584;2023-08-17T01:15:40;3.67;;;1.80;;
11962;SDS011;62678;52.130;5.584;2023-08-17T01:18:11;4.05;;;1.77;;
11962;SDS011;62678;52.130;5.584;2023-08-17T01:20:44;3.53;;;1.90;;
11962;SDS011;62678;52.130;5.584;2023-08-17T01:23:14;5.43;;;1.80;;
11962;SDS011;62678;52.130;5.584;2023-08-17T01:25:41;3.08;;;1.77;;
11962;SDS011;62678;52.130;5.584;2023-08-17T01:28:08;4.93;;;1.52;;
11962;SDS011;62678;52.130;5.584;2023-08-17T01:30:36;4.68;;;1.73;;
11962;SDS011;62678;52.130;5.584;2023-08-17T01:33:08;4.18;;;1.50;;
11962;SDS011;62678;52.130;5.584;2023-08-17T01:35:38;3.90;;;1.77;;
11962;SDS011;62678;52.130;5.584;2023-08-17T01:38:11;3.67;;;1.70;;
11962;SDS011;62678;52.130;5.584;2023-08-17T01:40:46;7.75;;;2.25;;
11962;SDS011;62678;52.130;5.584;2023-08-17T01:43:16;6.38;;;1.83;;
11962;SDS011;62678;52.130;5.584;2023-08-17T01:45:44;6.00;;;1.88;;
11962;SDS011;62678;52.130;5.584;2023-08-17T01:48:12;5.20;;;1.75;;
11962;SDS011;62678;52.130;5.584;2023-08-17T01:50:39;4.70;;;1.67;;
11962;SDS011;62678;52.130;5.584;2023-08-17T01:53:06;6.15;;;2.28;;
11962;SDS011;62678;52.130;5.584;2023-08-17T01:55:35;6.78;;;2.00;;
11962;SDS011;62678;52.130;5.584;2023-08-17T01:58:04;8.48;;;2.10;;
11962;SDS011;62678;52.130;5.584;2023-08-17T02:00:31;7.68;;;1.95;;
11962;SDS011;62678;52.130;5.584;2023-08-17T02:02:58;7.07;;;2.22;;
11962;SDS011;62678;52.130;5.584;2023-08-17T02:05:25;3.83;;;1.90;;
11962;SDS011;62678;52.130;5.584;2023-08-17T02:07:54;6.13;;;2.00;;
11962;SDS011;62678;52.130;5.584;2023-08-17T02:10:21;5.95;;;1.88;;
11962;SDS011;62678;52.130;5.584;2023-08-17T02:12:49;6.05;;;1.88;;
11962;SDS011;62678;52.130;5.584;2023-08-17T02:15:16;5.95;;;1.90;;
11962;SDS011;62678;52.130;5.584;2023-08-17T02:17:43;5.15;;;1.80;;
11962;SDS011;62678;52.130;5.584;2023-08-17T02:20:11;6.15;;;2.03;;
11962;SDS011;62678;52.130;5.584;2023-08-17T02:22:39;5.47;;;1.77;;
11962;SDS011;62678;52.130;5.584;2023-08-17T02:25:07;6.63;;;2.28;;
11962;SDS011;62678;52.130;5.584;2023-08-17T02:27:34;4.43;;;2.17;;
11962;SDS011;62678;52.130;5.584;2023-08-17T02:30:03;5.28;;;1.95;;
11962;SDS011;62678;52.130;5.584;2023-08-17T02:32:31;4.65;;;2.20;;
11962;SDS011;62678;52.130;5.584;2023-08-17T02:34:58;5.20;;;1.90;;
11962;SDS011;62678;52.130;5.584;2023-08-17T02:37:25;5.88;;;1.98;;
11962;SDS011;62678;52.130;5.584;2023-08-17T02:39:52;6.25;;;2.08;;
11962;SDS011;62678;52.130;5.584;2023-08-17T02:42:19;6.88;;;2.38;;
11962;SDS011;62678;52.130;5.584;2023-08-17T02:44:46;6.05;;;2.10;;
11962;SDS011;62678;52.130;5.584;2023-08-17T02:47:14;5.60;;;2.10;;
11962;SDS011;62678;52.130;5.584;2023-08-17T02:49:41;5.90;;;1.92;;
11962;SDS011;62678;52.130;5.584;2023-08-17T02:52:08;6.22;;;2.20;;
11962;SDS011;62678;52.130;5.584;2023-08-17T02:54:36;6.82;;;2.08;;
11962;SDS011;62678;52.130;5.584;2023-08-17T02:57:03;4.45;;;1.92;;
11962;SDS011;62678;52.130;5.584;2023-08-17T02:59:29;5.75;;;2.35;;
11962;SDS011;62678;52.130;5.584;2023-08-17T03:01:56;5.57;;;1.92;;
11962;SDS011;62678;52.130;5.584;2023-08-17T03:04:25;4.72;;;1.80;;
11962;SDS011;62678;52.130;5.584;2023-08-17T03:06:52;5.97;;;1.98;;
11962;SDS011;62678;52.130;5.584;2023-08-17T03:09:19;5.22;;;1.95;;
11962;SDS011;62678;52.130;5.584;2023-08-17T03:11:46;6.13;;;1.67;;
11962;SDS011;62678;52.130;5.584;2023-08-17T03:14:13;3.30;;;1.85;;
11962;SDS011;62678;52.130;5.584;2023-08-17T03:16:40;5.97;;;1.90;;
11962;SDS011;62678;52.130;5.584;2023-08-17T03:19:07;5.32;;;1.98;;
11962;SDS011;62678;52.130;5.584;2023-08-17T03:21:37;7.07;;;1.98;;
11962;SDS011;62678;52.130;5.584;2023-08-17T03:24:05;4.45;;;1.70;;
11962;SDS011;62678;52.130;5.584;2023-08-17T03:26:32;3.97;;;1.58;;
11962;SDS011;62678;52.130;5.584;2023-08-17T03:28:59;6.20;;;1.90;;
11962;SDS011;62678;52.130;5.584;2023-08-17T03:31:26;6.05;;;1.88;;
11962;SDS011;62678;52.130;5.584;2023-08-17T03:33:53;6.72;;;2.00;;
11962;SDS011;62678;52.130;5.584;2023-08-17T03:36:21;8.07;;;1.90;;
11962;SDS011;62678;52.130;5.584;2023-08-17T03:38:50;5.40;;;1.85;;
11962;SDS011;62678;52.130;5.584;2023-08-17T03:41:18;4.95;;;1.67;;
11962;SDS011;62678;52.130;5.584;2023-08-17T03:43:45;5.32;;;2.00;;
11962;SDS011;62678;52.130;5.584;2023-08-17T03:46:13;6.57;;;1.95;;
11962;SDS011;62678;52.130;5.584;2023-08-17T03:48:39;7.07;;;2.30;;
11962;SDS011;62678;52.130;5.584;2023-08-17T03:51:06;7.30;;;2.28;;
11962;SDS011;62678;52.130;5.584;2023-08-17T03:53:33;7.18;;;2.15;;
11962;SDS011;62678;52.130;5.584;2023-08-17T03:56:02;6.68;;;2.45;;
11962;SDS011;62678;52.130;5.584;2023-08-17T03:58:29;6.55;;;1.85;;
11962;SDS011;62678;52.130;5.584;2023-08-17T04:00:59;4.45;;;2.30;;
11962;SDS011;62678;52.130;5.584;2023-08-17T04:03:27;4.63;;;2.08;;
11962;SDS011;62678;52.130;5.584;2023-08-17T04:05:54;8.13;;;2.42;;
11962;SDS011;62678;52.130;5.584;2023-08-17T04:08:20;4.15;;;1.90;;
11962;SDS011;62678;52.130;5.584;2023-08-17T04:10:48;5.22;;;1.90;;
11962;SDS011;62678;52.130;5.584;2023-08-17T04:13:16;4.95;;;2.00;;
11962;SDS011;62678;52.130;5.584;2023-08-17T04:15:43;4.53;;;2.05;;
11962;SDS011;62678;52.130;5.584;2023-08-17T04:18:11;4.93;;;2.08;;
11962;SDS011;62678;52.130;5.584;2023-08-17T04:20:38;8.70;;;1.95;;
11962;SDS011;62678;52.130;5.584;2023-08-17T04:23:04;4.53;;;2.00;;
11962;SDS011;62678;52.130;5.584;2023-08-17T04:25:31;4.97;;;2.00;;
11962;SDS011;62678;52.130;5.584;2023-08-17T04:27:58;6.78;;;2.50;;
11962;SDS011;62678;52.130;5.584;2023-08-17T04:30:27;5.32;;;1.95;;
11962;SDS011;62678;52.130;5.584;2023-08-17T04:32:54;6.45;;;2.15;;
11962;SDS011;62678;52.130;5.584;2023-08-17T04:35:21;6.63;;;2.00;;
11962;SDS011;62678;52.130;5.584;2023-08-17T04:37:48;5.47;;;2.10;;
11962;SDS011;62678;52.130;5.584;2023-08-17T04:40:15;3.95;;;1.90;;
11962;SDS011;62678;52.130;5.584;2023-08-17T04:42:42;3.92;;;1.90;;
11962;SDS011;62678;52.130;5.584;2023-08-17T04:45:09;7.45;;;2.20;;
11962;SDS011;62678;52.130;5.584;2023-08-17T04:47:37;4.25;;;2.00;;
11962;SDS011;62678;52.130;5.584;2023-08-17T04:50:05;5.68;;;2.00;;
11962;SDS011;62678;52.130;5.584;2023-08-17T04:52:32;7.43;;;2.00;;
11962;SDS011;62678;52.130;5.584;2023-08-17T04:54:59;7.18;;;1.70;;
11962;SDS011;62678;52.130;5.584;2023-08-17T04:57:26;3.55;;;1.75;;
11962;SDS011;62678;52.130;5.584;2023-08-17T04:59:53;5.55;;;2.17;;
11962;SDS011;62678;52.130;5.584;2023-08-17T05:02:20;6.03;;;2.10;;
11962;SDS011;62678;52.130;5.584;2023-08-17T05:04:48;5.32;;;2.00;;
11962;SDS011;62678;52.130;5.584;2023-08-17T05:07:15;7.97;;;1.85;;
11962;SDS011;62678;52.130;5.584;2023-08-17T05:09:42;5.75;;;2.30;;
11962;SDS011;62678;52.130;5.584;2023-08-17T05:12:09;5.95;;;2.03;;
11962;SDS011;62678;52.130;5.584;2023-08-17T05:14:36;4.35;;;1.73;;
11962;SDS011;62678;52.130;5.584;2023-08-17T05:17:03;7.53;;;2.10;;
11962;SDS011;62678;52.130;5.584;2023-08-17T05:19:30;5.78;;;1.90;;
11962;SDS011;62678;52.130;5.584;2023-08-17T05:21:59;5.25;;;1.83;;
11962;SDS011;62678;52.130;5.584;2023-08-17T05:24:26;3.97;;;1.67;;
11962;SDS011;62678;52.130;5.584;2023-08-17T05:26:53;6.28;;;1.85;;
11962;SDS011;62678;52.130;5.584;2023-08-17T05:29:20;5.32;;;2.17;;
11962;SDS011;62678;52.130;5.584;2023-08-17T05:31:48;5.63;;;2.10;;
11962;SDS011;62678;52.130;5.584;2023-08-17T05:34:15;4.78;;;1.77;;
11962;SDS011;62678;52.130;5.584;2023-08-17T05:36:42;6.28;;;1.98;;
11962;SDS011;62678;52.130;5.584;2023-08-17T05:39:10;4.50;;;1.70;;
11962;SDS011;62678;52.130;5.584;2023-08-17T05:41:37;7.13;;;2.03;;
11962;SDS011;62678;52.130;5.584;2023-08-17T05:44:04;9.82;;;2.15;;
11962;SDS011;62678;52.130;5.584;2023-08-17T05:46:32;6.70;;;2.15;;
11962;SDS011;62678;52.130;5.584;2023-08-17T05:48:59;5.82;;;1.75;;
11962;SDS011;62678;52.130;5.584;2023-08-17T05:51:27;4.53;;;1.90;;
11962;SDS011;62678;52.130;5.584;2023-08-17T05:53:54;5.00;;;1.90;;
11962;SDS011;62678;52.130;5.584;2023-08-17T05:56:22;5.53;;;1.95;;
11962;SDS011;62678;52.130;5.584;2023-08-17T05:58:49;7.43;;;2.15;;
11962;SDS011;62678;52.130;5.584;2023-08-17T06:01:16;4.15;;;1.90;;
11962;SDS011;62678;52.130;5.584;2023-08-17T06:03:43;5.10;;;2.20;;
11962;SDS011;62678;52.130;5.584;2023-08-17T06:06:10;4.78;;;2.17;;
11962;SDS011;62678;52.130;5.584;2023-08-17T06:08:37;5.93;;;2.13;;
11962;SDS011;62678;52.130;5.584;2023-08-17T06:11:04;2.30;;;1.90;;
11962;SDS011;62678;52.130;5.584;2023-08-17T06:13:33;4.38;;;2.03;;
11962;SDS011;62678;52.130;5.584;2023-08-17T06:16:00;6.03;;;2.13;;
11962;SDS011;62678;52.130;5.584;2023-08-17T06:18:27;6.43;;;2.05;;
11962;SDS011;62678;52.130;5.584;2023-08-17T06:20:55;6.18;;;2.22;;
11962;SDS011;62678;52.130;5.584;2023-08-17T06:23:23;9.75;;;2.20;;
11962;SDS011;62678;52.130;5.584;2023-08-17T06:25:50;7.30;;;2.35;;
11962;SDS011;62678;52.130;5.584;2023-08-17T06:28:17;4.43;;;2.10;;
11962;SDS011;62678;52.130;5.584;2023-08-17T06:30:45;6.70;;;2.20;;
11962;SDS011;62678;52.130;5.584;2023-08-17T06:33:12;6.57;;;2.33;;
11962;SDS011;62678;52.130;5.584;2023-08-17T06:35:39;4.60;;;2.20;;
11962;SDS011;62678;52.130;5.584;2023-08-17T06:38:06;5.13;;;1.95;;
11962;SDS011;62678;52.130;5.584;2023-08-17T06:40:33;6.70;;;2.13;;
11962;SDS011;62678;52.130;5.584;2023-08-17T06:43:00;5.55;;;2.00;;
11962;SDS011;62678;52.130;5.584;2023-08-17T06:45:27;5.15;;;2.00;;
11962;SDS011;62678;52.130;5.584;2023-08-17T06:47:55;6.00;;;2.38;;
11962;SDS011;62678;52.130;5.584;2023-08-17T06:50:22;5.40;;;2.20;;
11962;SDS011;62678;52.130;5.584;2023-08-17T06:52:49;5.50;;;2.28;;
11962;SDS011;62678;52.130;5.584;2023-08-17T06:55:16;4.88;;;1.90;;
11962;SDS011;62678;52.130;5.584;2023-08-17T06:57:44;7.30;;;2.42;;
11962;SDS011;62678;52.130;5.584;2023-08-17T07:00:11;5.40;;;2.00;;
11962;SDS011;62678;52.130;5.584;2023-08-17T07:02:38;5.15;;;2.35;;
11962;SDS011;62678;52.130;5.584;2023-08-17T07:05:07;7.20;;;2.13;;
11962;SDS011;62678;52.130;5.584;2023-08-17T07:07:35;7.70;;;2.08;;
11962;SDS011;62678;52.130;5.584;2023-08-17T07:10:04;5.05;;;2.05;;
11962;SDS011;62678;52.130;5.584;2023-08-17T07:12:32;6.57;;;2.45;;
11962;SDS011;62678;52.130;5.584;2023-08-17T07:14:59;7.75;;;2.40;;
11962;SDS011;62678;52.130;5.584;2023-08-17T07:17:26;7.03;;;2.47;;
11962;SDS011;62678;52.130;5.584;2023-08-17T07:19:53;5.13;;;2.25;;
11962;SDS011;62678;52.130;5.584;2023-08-17T07:22:21;5.30;;;2.20;;
11962;SDS011;62678;52.130;5.584;2023-08-17T07:24:48;6.40;;;2.20;;
11962;SDS011;62678;52.130;5.584;2023-08-17T07:27:15;6.72;;;2.10;;
11962;SDS011;62678;52.130;5.584;2023-08-17T07:29:42;5.88;;;2.20;;
11962;SDS011;62678;52.130;5.584;2023-08-17T07:32:09;10.35;;;2.90;;
11962;SDS011;62678;52.130;5.584;2023-08-17T07:34:36;6.10;;;2.10;;
11962;SDS011;62678;52.130;5.584;2023-08-17T07:37:03;6.18;;;2.38;;
11962;SDS011;62678;52.130;5.584;2023-08-17T07:39:32;7.60;;;2.40;;
11962;SDS011;62678;52.130;5.584;2023-08-17T07:41:59;5.78;;;2.20;;
11962;SDS011;62678;52.130;5.584;2023-08-17T07:44:26;6.88;;;2.33;;
11962;SDS011;62678;52.130;5.584;2023-08-17T07:46:56;8.90;;;2.50;;
11962;SDS011;62678;52.130;5.584;2023-08-17T07:49:24;6.50;;;2.10;;
11962;SDS011;62678;52.130;5.584;2023-08-17T07:51:51;6.78;;;2.40;;
11962;SDS011;62678;52.130;5.584;2023-08-17T07:54:18;5.18;;;2.08;;
11962;SDS011;62678;52.130;5.584;2023-08-17T07:56:46;7.55;;;2.20;;
11962;SDS011;62678;52.130;5.584;2023-08-17T07:59:13;7.72;;;2.10;;
11962;SDS011;62678;52.130;5.584;2023-08-17T08:01:40;5.50;;;1.90;;
11962;SDS011;62678;52.130;5.584;2023-08-17T08:04:07;7.10;;;2.33;;
11962;SDS011;62678;52.130;5.584;2023-08-17T08:06:34;6.32;;;2.20;;
11962;SDS011;62678;52.130;5.584;2023-08-17T08:09:01;7.82;;;2.33;;
11962;SDS011;62678;52.130;5.584;2023-08-17T08:11:28;5.95;;;2.35;;
11962;SDS011;62678;52.130;5.584;2023-08-17T08:13:57;6.93;;;2.47;;
11962;SDS011;62678;52.130;5.584;2023-08-17T08:16:24;5.88;;;1.95;;
11962;SDS011;62678;52.130;5.584;2023-08-17T08:18:51;5.97;;;2.17;;
11962;SDS011;62678;52.130;5.584;2023-08-17T08:21:18;5.88;;;2.10;;
11962;SDS011;62678;52.130;5.584;2023-08-17T08:23:45;5.75;;;2.10;;
11962;SDS011;62678;52.130;5.584;2023-08-17T08:26:12;5.90;;;2.15;;
11962;SDS011;62678;52.130;5.584;2023-08-17T08:28:39;9.10;;;2.22;;
11962;SDS011;62678;52.130;5.584;2023-08-17T08:31:07;5.57;;;1.95;;
11962;SDS011;62678;52.130;5.584;2023-08-17T08:33:34;7.53;;;2.08;;
11962;SDS011;62678;52.130;5.584;2023-08-17T08:36:02;9.05;;;2.20;;
11962;SDS011;62678;52.130;5.584;2023-08-17T08:38:31;4.50;;;2.10;;
11962;SDS011;62678;52.130;5.584;2023-08-17T08:40:58;6.85;;;2.30;;
11962;SDS011;62678;52.130;5.584;2023-08-17T08:43:25;8.57;;;1.90;;
11962;SDS011;62678;52.130;5.584;2023-08-17T08:45:52;6.60;;;1.95;;
11962;SDS011;62678;52.130;5.584;2023-08-17T08:48:22;7.78;;;2.30;;
11962;SDS011;62678;52.130;5.584;2023-08-17T08:50:52;7.57;;;2.03;;
11962;SDS011;62678;52.130;5.584;2023-08-17T08:53:22;8.52;;;2.05;;
11962;SDS011;62678;52.130;5.584;2023-08-17T08:55:54;5.80;;;2.13;;
11962;SDS011;62678;52.130;5.584;2023-08-17T08:58:24;5.22;;;2.13;;
11962;SDS011;62678;52.130;5.584;2023-08-17T09:00:52;4.63;;;2.35;;
11962;SDS011;62678;52.130;5.584;2023-08-17T09:03:21;6.28;;;2.38;;
11962;SDS011;62678;52.130;5.584;2023-08-17T09:05:50;5.60;;;2.40;;
11962;SDS011;62678;52.130;5.584;2023-08-17T09:08:20;7.95;;;2.60;;
11962;SDS011;62678;52.130;5.584;2023-08-17T09:10:48;6.20;;;2.28;;
11962;SDS011;62678;52.130;5.584;2023-08-17T09:13:15;6.25;;;2.25;;
11962;SDS011;62678;52.130;5.584;2023-08-17T09:15:42;9.98;;;2.70;;
11962;SDS011;62678;52.130;5.584;2023-08-17T09:18:10;4.72;;;2.40;;
11962;SDS011;62678;52.130;5.584;2023-08-17T09:20:39;9.05;;;2.55;;
11962;SDS011;62678;52.130;5.584;2023-08-17T09:23:10;16.73;;;2.72;;
11962;SDS011;62678;52.130;5.584;2023-08-17T09:25:39;35.72;;;4.95;;
11962;SDS011;62678;52.130;5.584;2023-08-17T09:28:07;9.13;;;3.20;;
11962;SDS011;62678;52.130;5.584;2023-08-17T09:30:48;9.10;;;3.05;;
11962;SDS011;62678;52.130;5.584;2023-08-17T09:33:16;10.90;;;3.58;;
11962;SDS011;62678;52.130;5.584;2023-08-17T09:35:45;11.15;;;3.47;;
11962;SDS011;62678;52.130;5.584;2023-08-17T09:38:11;7.10;;;2.85;;
11962;SDS011;62678;52.130;5.584;2023-08-17T09:40:39;9.13;;;3.08;;
11962;SDS011;62678;52.130;5.584;2023-08-17T09:43:06;9.13;;;3.03;;
11962;SDS011;62678;52.130;5.584;2023-08-17T09:45:33;10.23;;;3.38;;
11962;SDS011;62678;52.130;5.584;2023-08-17T09:48:00;9.02;;;3.40;;
11962;SDS011;62678;52.130;5.584;2023-08-17T09:50:27;10.13;;;3.08;;
11962;SDS011;62678;52.130;5.584;2023-08-17T09:52:55;10.10;;;3.42;;
11962;SDS011;62678;52.130;5.584;2023-08-17T09:55:22;7.70;;;3.45;;
11962;SDS011;62678;52.130;5.584;2023-08-17T09:57:50;9.10;;;3.45;;
11962;SDS011;62678;52.130;5.584;2023-08-17T10:00:18;7.70;;;3.28;;
11962;SDS011;62678;52.130;5.584;2023-08-17T10:02:46;6.55;;;3.63;;
11962;SDS011;62678;52.130;5.584;2023-08-17T10:05:17;7.78;;;3.42;;
11962;SDS011;62678;52.130;5.584;2023-08-17T10:07:46;6.57;;;3.22;;
11962;SDS011;62678;52.130;5.584;2023-08-17T10:10:19;9.60;;;3.60;;
11962;SDS011;62678;52.130;5.584;2023-08-17T10:12:53;6.25;;;3.15;;
11962;SDS011;62678;52.130;5.584;2023-08-17T10:15:29;9.93;;;3.42;;
11962;SDS011;62678;52.130;5.584;2023-08-17T10:17:58;8.40;;;3.58;;
11962;SDS011;62678;52.130;5.584;2023-08-17T10:20:34;8.23;;;3.13;;
11962;SDS011;62678;52.130;5.584;2023-08-17T10:23:04;10.57;;;3.42;;
11962;SDS011;62678;52.130;5.584;2023-08-17T10:25:39;7.80;;;3.75;;
11962;SDS011;62678;52.130;5.584;2023-08-17T10:28:08;7.40;;;3.60;;
11962;SDS011;62678;52.130;5.584;2023-08-17T10:30:37;7.15;;;3.20;;
11962;SDS011;62678;52.130;5.584;2023-08-17T10:33:04;8.32;;;3.20;;
11962;SDS011;62678;52.130;5.584;2023-08-17T10:35:32;8.10;;;3.38;;
11962;SDS011;62678;52.130;5.584;2023-08-17T10:38:01;7.28;;;2.90;;
11962;SDS011;62678;52.130;5.584;2023-08-17T10:40:34;6.78;;;3.20;;
11962;SDS011;62678;52.130;5.584;2023-08-17T10:43:03;7.47;;;3.60;;
11962;SDS011;62678;52.130;5.584;2023-08-17T10:45:31;8.02;;;4.03;;
11962;SDS011;62678;52.130;5.584;2023-08-17T10:48:00;12.60;;;4.40;;
11962;SDS011;62678;52.130;5.584;2023-08-17T10:50:58;9.40;;;4.43;;
11962;SDS011;62678;52.130;5.584;2023-08-17T10:53:27;11.90;;;4.70;;
11962;SDS011;62678;52.130;5.584;2023-08-17T10:55:59;9.02;;;4.40;;
11962;SDS011;62678;52.130;5.584;2023-08-17T10:58:30;8.65;;;4.15;;
11962;SDS011;62678;52.130;5.584;2023-08-17T11:00:59;11.60;;;4.20;;
11962;SDS011;62678;52.130;5.584;2023-08-17T11:03:28;10.38;;;4.10;;
11962;SDS011;62678;52.130;5.584;2023-08-17T11:05:55;10.30;;;3.65;;
11962;SDS011;62678;52.130;5.584;2023-08-17T11:08:23;9.98;;;4.10;;
11962;SDS011;62678;52.130;5.584;2023-08-17T11:11:02;7.25;;;3.50;;
11962;SDS011;62678;52.130;5.584;2023-08-17T11:13:31;7.40;;;3.45;;
11962;SDS011;62678;52.130;5.584;2023-08-17T11:16:00;8.60;;;3.45;;
11962;SDS011;62678;52.130;5.584;2023-08-17T11:18:28;10.63;;;3.67;;
11962;SDS011;62678;52.130;5.584;2023-08-17T11:20:55;9.38;;;3.80;;
11962;SDS011;62678;52.130;5.584;2023-08-17T11:23:23;9.73;;;3.28;;
11962;SDS011;62678;52.130;5.584;2023-08-17T11:25:52;10.63;;;3.70;;
11962;SDS011;62678;52.130;5.584;2023-08-17T11:28:19;8.85;;;3.28;;
11962;SDS011;62678;52.130;5.584;2023-08-17T11:30:57;8.98;;;4.13;;
11962;SDS011;62678;52.130;5.584;2023-08-17T11:33:24;8.43;;;3.55;;
11962;SDS011;62678;52.130;5.584;2023-08-17T11:35:53;8.70;;;3.72;;
11962;SDS011;62678;52.130;5.584;2023-08-17T11:38:20;7.45;;;4.00;;
11962;SDS011;62678;52.130;5.584;2023-08-17T11:40:47;7.50;;;3.58;;
11962;SDS011;62678;52.130;5.584;2023-08-17T11:43:15;9.52;;;3.35;;
11962;SDS011;62678;52.130;5.584;2023-08-17T11:45:43;7.28;;;3.45;;
11962;SDS011;62678;52.130;5.584;2023-08-17T11:48:11;13.05;;;3.80;;
11962;SDS011;62678;52.130;5.584;2023-08-17T11:50:42;9.75;;;3.20;;
11962;SDS011;62678;52.130;5.584;2023-08-17T11:53:10;6.57;;;3.42;;
11962;SDS011;62678;52.130;5.584;2023-08-17T11:55:37;7.40;;;3.33;;
11962;SDS011;62678;52.130;5.584;2023-08-17T11:58:04;6.22;;;3.40;;
11962;SDS011;62678;52.130;5.584;2023-08-17T12:00:34;9.50;;;3.65;;
11962;SDS011;62678;52.130;5.584;2023-08-17T12:03:02;6.55;;;3.10;;
11962;SDS011;62678;52.130;5.584;2023-08-17T12:05:32;8.77;;;3.53;;
11962;SDS011;62678;52.130;5.584;2023-08-17T12:07:59;8.52;;;3.53;;
11962;SDS011;62678;52.130;5.584;2023-08-17T12:10:27;7.22;;;3.33;;
11962;SDS011;62678;52.130;5.584;2023-08-17T12:12:57;8.15;;;3.42;;
11962;SDS011;62678;52.130;5.584;2023-08-17T12:15:29;6.38;;;3.30;;
11962;SDS011;62678;52.130;5.584;2023-08-17T12:17:58;6.75;;;3.10;;
11962;SDS011;62678;52.130;5.584;2023-08-17T12:20:26;6.68;;;3.40;;
11962;SDS011;62678;52.130;5.584;2023-08-17T12:22:56;7.40;;;3.53;;
11962;SDS011;62678;52.130;5.584;2023-08-17T12:25:24;9.05;;;3.40;;
11962;SDS011;62678;52.130;5.584;2023-08-17T12:27:52;6.50;;;3.25;;
11962;SDS011;62678;52.130;5.584;2023-08-17T12:30:26;4.88;;;3.30;;
11962;SDS011;62678;52.130;5.584;2023-08-17T12:32:54;5.30;;;3.22;;
11962;SDS011;62678;52.130;5.584;2023-08-17T12:35:21;5.20;;;3.20;;
11962;SDS011;62678;52.130;5.584;2023-08-17T12:37:50;6.47;;;3.22;;
11962;SDS011;62678;52.130;5.584;2023-08-17T12:40:18;7.68;;;3.63;;
11962;SDS011;62678;52.130;5.584;2023-08-17T12:42:46;5.75;;;3.30;;
11962;SDS011;62678;52.130;5.584;2023-08-17T12:45:13;5.78;;;3.70;;
11962;SDS011;62678;52.130;5.584;2023-08-17T12:47:41;7.78;;;3.88;;
11962;SDS011;62678;52.130;5.584;2023-08-17T12:50:08;4.82;;;3.42;;
11962;SDS011;62678;52.130;5.584;2023-08-17T12:52:36;6.25;;;3.67;;
11962;SDS011;62678;52.130;5.584;2023-08-17T12:55:03;8.43;;;3.67;;
11962;SDS011;62678;52.130;5.584;2023-08-17T12:57:32;6.75;;;3.92;;
11962;SDS011;62678;52.130;5.584;2023-08-17T12:59:59;6.47;;;3.30;;
11962;SDS011;62678;52.130;5.584;2023-08-17T13:02:26;5.80;;;3.33;;
11962;SDS011;62678;52.130;5.584;2023-08-17T13:04:53;6.63;;;3.70;;
11962;SDS011;62678;52.130;5.584;2023-08-17T13:07:20;8.50;;;3.80;;
11962;SDS011;62678;52.130;5.584;2023-08-17T13:09:47;6.75;;;3.58;;
11962;SDS011;62678;52.130;5.584;2023-08-17T13:12:14;6.65;;;3.30;;
11962;SDS011;62678;52.130;5.584;2023-08-17T13:14:43;6.93;;;3.47;;
11962;SDS011;62678;52.130;5.584;2023-08-17T13:17:10;5.80;;;3.50;;
11962;SDS011;62678;52.130;5.584;2023-08-17T13:19:39;5.63;;;3.78;;
11962;SDS011;62678;52.130;5.584;2023-08-17T13:22:06;7.70;;;3.95;;
11962;SDS011;62678;52.130;5.584;2023-08-17T13:24:33;5.63;;;3.65;;
11962;SDS011;62678;52.130;5.584;2023-08-17T13:27:01;5.53;;;3.35;;
11962;SDS011;62678;52.130;5.584;2023-08-17T13:29:28;5.22;;;3.47;;
11962;SDS011;62678;52.130;5.584;2023-08-17T13:31:56;6.30;;;3.40;;
11962;SDS011;62678;52.130;5.584;2023-08-17T13:34:23;6.30;;;3.58;;
11962;SDS011;62678;52.130;5.584;2023-08-17T13:36:50;5.85;;;3.45;;
11962;SDS011;62678;52.130;5.584;2023-08-17T13:39:27;5.00;;;3.22;;
11962;SDS011;62678;52.130;5.584;2023-08-17T13:42:01;6.93;;;3.70;;
11962;SDS011;62678;52.130;5.584;2023-08-17T13:44:28;6.22;;;3.42;;
11962;SDS011;62678;52.130;5.584;2023-08-17T13:46:57;7.53;;;3.75;;
11962;SDS011;62678;52.130;5.584;2023-08-17T13:49:24;5.85;;;4.20;;
11962;SDS011;62678;52.130;5.584;2023-08-17T13:51:53;6.80;;;4.30;;
11962;SDS011;62678;52.130;5.584;2023-08-17T13:54:21;8.75;;;4.07;;
11962;SDS011;62678;52.130;5.584;2023-08-17T13:56:48;7.70;;;4.22;;
11962;SDS011;62678;52.130;5.584;2023-08-17T13:59:15;5.30;;;3.85;;
11962;SDS011;62678;52.130;5.584;2023-08-17T14:01:42;5.80;;;3.38;;
11962;SDS011;62678;52.130;5.584;2023-08-17T14:04:11;6.45;;;3.45;;
11962;SDS011;62678;52.130;5.584;2023-08-17T14:06:39;7.70;;;3.92;;
11962;SDS011;62678;52.130;5.584;2023-08-17T14:09:07;7.20;;;4.55;;
11962;SDS011;62678;52.130;5.584;2023-08-17T14:11:34;6.05;;;3.90;;
11962;SDS011;62678;52.130;5.584;2023-08-17T14:14:01;6.93;;;4.32;;
11962;SDS011;62678;52.130;5.584;2023-08-17T14:16:30;9.45;;;3.92;;
11962;SDS011;62678;52.130;5.584;2023-08-17T14:18:57;6.93;;;3.90;;
11962;SDS011;62678;52.130;5.584;2023-08-17T14:21:25;6.63;;;3.85;;
11962;SDS011;62678;52.130;5.584;2023-08-17T14:23:52;5.70;;;3.95;;
11962;SDS011;62678;52.130;5.584;2023-08-17T14:26:19;6.38;;;4.15;;
11962;SDS011;62678;52.130;5.584;2023-08-17T14:28:46;8.45;;;3.78;;
11962;SDS011;62678;52.130;5.584;2023-08-17T14:31:13;7.38;;;3.78;;
11962;SDS011;62678;52.130;5.584;2023-08-17T14:33:42;6.20;;;3.90;;
11962;SDS011;62678;52.130;5.584;2023-08-17T14:36:09;8.75;;;4.00;;
11962;SDS011;62678;52.130;5.584;2023-08-17T14:38:37;7.85;;;4.50;;
11962;SDS011;62678;52.130;5.584;2023-08-17T14:41:04;6.78;;;4.10;;
11962;SDS011;62678;52.130;5.584;2023-08-17T14:43:33;12.82;;;4.47;;
11962;SDS011;62678;52.130;5.584;2023-08-17T14:45:59;8.43;;;4.50;;
11962;SDS011;62678;52.130;5.584;2023-08-17T14:48:26;7.60;;;4.30;;
11962;SDS011;62678;52.130;5.584;2023-08-17T14:50:53;5.28;;;4.20;;
11962;SDS011;62678;52.130;5.584;2023-08-17T14:53:20;6.88;;;4.80;;